EPLL/LCJ METAR and TAF weather

Enter ICAO airport designator
Station Type Date Time Source
EPLL METAR 2022/07/01 02:00 UTC NOAA

EPLL 010200Z 04010KT CAVOK 22/17 Q1013


Station Type Date Time Source
EPLL Decoded METAR 2022/07/01 02:00 UTC NOAA

Station name not available
Jun 30, 2022 - 10:00 PM EDT / 2022.07.01 0200 UTC
Wind: from the NE (040 degrees) at 12 MPH (10 KT):0
Visibility: greater than 7 mile(s):0
Temperature: 71 F (22 C)
Dew Point: 62 F (17 C)
Relative Humidity: 73%
Pressure (altimeter): 29.91 in. Hg (1013 hPa)
ob: EPLL 010200Z 04010KT CAVOK 22/17 Q1013
cycle: 2

Station Type Date Time Source
EPLL TAF 2022/06/30 18:00 UTC NOAA

TAF EPLL 301730Z 3018/0118 14004KT CAVOK PROB40
TEMPO 3018/3024 VRB15G30KT 2500 TSRA BKN030CB
TEMPO 0114/0118 VRB15G30KT 3000 TSRA BKN030CB

Example: see airport list